Airfield :
LOGIN :

Register | Disclaimer

   EN    FR    IT 

 










Legend :    VFR   Marginal VFR   IFR   Intensive IFR   Very Intensive IFR
Visi :
Ceiling :
>= 8 km
>= 3000ft
5 to 8 km
1000 to 3000 ft
1500m to 5 km
500 to 1000 ft
800 to 1500m
200 to 500 ft
< 800m
< 200 ft
Symbols :   Thunderstorms  Fog  Heavy snow  Heavy precipitations  Wind > 20 kt
SIGMETs :     Misc.  Thunderstorms  Icing  Turbulence  Mountain Waves  Volcanic Ashes







- Airport Elevation : 84 ft
- Download approach charts


LFBC - Cazaux

CURRENT METAR :
  • 240830Z AUTO 16004KT 9999 FEW026 OVC033 19/15 Q1022

EXPIRED METARs :
  • 240800Z AUTO 17003KT 9999 OVC037 19/15 Q1022
  • 240730Z AUTO 13003KT 090V170 9999 OVC036 18/15 Q1022
  • 240700Z AUTO VRB02KT 9999 BKN038 OVC044 18/15 Q1022
  • 240630Z AUTO 18003KT 9999 OVC037 17/15 Q1022
  • 240600Z AUTO 15003KT 9999 FEW030 OVC041 16/15 Q1022

TAF TAF LFBC
Valid from the 23 at 09:00 until the 24 at 09:00 UTC


230800Z 2309/2409 25005KT 8000 SCT005 BKN025
TEMPO 2314/2319 33010KT
BECMG 2319/2321 BKN010
BECMG 2408/2409 BKN020
No reported NOTAMs for that airfield.



MET'MAP, your aeronautical weather chart ! - Copyright ORBIFLY December 2007 - Disclaimer

ORBIFLY MET'MAP TEAM :

Programming & Development : Alexandra Zaïnal
Concept & Development : Baudouin d'Aumeries
Co-Development & Prog : Marc-Olivier Méhu
Technical & hardware support : Manuel Goepfert

Contact : metmap@orbifly.com




SOURCES & CREDITS :

   NOAA